sensor_id;sensor_type;location;lat;lon;timestamp;P1;durP1;ratioP1;P2;durP2;ratioP2
48596;SDS011;34382;43.160;24.148;2022-08-18T00:01:00;11.90;;;7.00;;
48596;SDS011;34382;43.160;24.148;2022-08-18T00:02:35;10.85;;;6.45;;
48596;SDS011;34382;43.160;24.148;2022-08-18T00:04:14;12.07;;;7.35;;
48596;SDS011;34382;43.160;24.148;2022-08-18T00:06:06;11.57;;;6.97;;
48596;SDS011;34382;43.160;24.148;2022-08-18T00:07:38;11.00;;;6.82;;
48596;SDS011;34382;43.160;24.148;2022-08-18T00:09:17;10.07;;;6.90;;
48596;SDS011;34382;43.160;24.148;2022-08-18T00:10:49;11.63;;;7.50;;
48596;SDS011;34382;43.160;24.148;2022-08-18T00:12:23;9.63;;;6.55;;
48596;SDS011;34382;43.160;24.148;2022-08-18T00:13:55;11.45;;;6.78;;
48596;SDS011;34382;43.160;24.148;2022-08-18T00:15:27;11.25;;;7.00;;
48596;SDS011;34382;43.160;24.148;2022-08-18T00:17:00;11.35;;;6.78;;
48596;SDS011;34382;43.160;24.148;2022-08-18T00:18:32;11.60;;;6.78;;
48596;SDS011;34382;43.160;24.148;2022-08-18T00:20:05;10.40;;;6.80;;
48596;SDS011;34382;43.160;24.148;2022-08-18T00:21:39;10.48;;;6.65;;
48596;SDS011;34382;43.160;24.148;2022-08-18T00:23:11;10.52;;;6.82;;
48596;SDS011;34382;43.160;24.148;2022-08-18T00:24:45;11.10;;;7.05;;
48596;SDS011;34382;43.160;24.148;2022-08-18T00:26:19;11.15;;;6.68;;
48596;SDS011;34382;43.160;24.148;2022-08-18T00:27:52;10.43;;;6.85;;
48596;SDS011;34382;43.160;24.148;2022-08-18T00:29:25;11.40;;;7.25;;
48596;SDS011;34382;43.160;24.148;2022-08-18T00:30:57;11.45;;;6.97;;
48596;SDS011;34382;43.160;24.148;2022-08-18T00:32:30;11.43;;;7.38;;
48596;SDS011;34382;43.160;24.148;2022-08-18T00:34:04;10.18;;;6.82;;
48596;SDS011;34382;43.160;24.148;2022-08-18T00:35:38;12.15;;;6.57;;
48596;SDS011;34382;43.160;24.148;2022-08-18T00:37:10;13.65;;;7.18;;
48596;SDS011;34382;43.160;24.148;2022-08-18T00:38:42;9.93;;;6.85;;
48596;SDS011;34382;43.160;24.148;2022-08-18T00:40:19;11.32;;;6.95;;
48596;SDS011;34382;43.160;24.148;2022-08-18T00:41:54;13.18;;;7.68;;
48596;SDS011;34382;43.160;24.148;2022-08-18T00:45:21;11.45;;;7.00;;
48596;SDS011;34382;43.160;24.148;2022-08-18T00:46:55;11.10;;;7.25;;
48596;SDS011;34382;43.160;24.148;2022-08-18T00:48:28;10.27;;;7.07;;
48596;SDS011;34382;43.160;24.148;2022-08-18T00:50:00;11.02;;;7.10;;
48596;SDS011;34382;43.160;24.148;2022-08-18T00:51:34;11.30;;;6.65;;
48596;SDS011;34382;43.160;24.148;2022-08-18T00:54:45;9.80;;;6.60;;
48596;SDS011;34382;43.160;24.148;2022-08-18T00:56:20;11.45;;;6.95;;
48596;SDS011;34382;43.160;24.148;2022-08-18T00:57:57;10.00;;;7.22;;
48596;SDS011;34382;43.160;24.148;2022-08-18T01:01:19;10.32;;;6.93;;
48596;SDS011;34382;43.160;24.148;2022-08-18T01:02:54;12.85;;;7.40;;
48596;SDS011;34382;43.160;24.148;2022-08-18T01:04:36;11.77;;;7.10;;
48596;SDS011;34382;43.160;24.148;2022-08-18T01:06:19;11.60;;;6.85;;
48596;SDS011;34382;43.160;24.148;2022-08-18T01:08:02;11.73;;;7.28;;
48596;SDS011;34382;43.160;24.148;2022-08-18T01:09:35;11.00;;;6.93;;
48596;SDS011;34382;43.160;24.148;2022-08-18T01:11:07;12.27;;;7.07;;
48596;SDS011;34382;43.160;24.148;2022-08-18T01:12:45;10.48;;;7.10;;
48596;SDS011;34382;43.160;24.148;2022-08-18T01:14:19;11.80;;;7.40;;
48596;SDS011;34382;43.160;24.148;2022-08-18T01:15:51;9.52;;;6.50;;
48596;SDS011;34382;43.160;24.148;2022-08-18T01:17:23;11.02;;;7.63;;
48596;SDS011;34382;43.160;24.148;2022-08-18T01:19:15;11.82;;;7.30;;
48596;SDS011;34382;43.160;24.148;2022-08-18T01:23:14;11.85;;;7.05;;
48596;SDS011;34382;43.160;24.148;2022-08-18T01:24:48;11.57;;;7.25;;
48596;SDS011;34382;43.160;24.148;2022-08-18T01:26:40;12.50;;;7.43;;
48596;SDS011;34382;43.160;24.148;2022-08-18T01:28:20;10.68;;;7.15;;
48596;SDS011;34382;43.160;24.148;2022-08-18T01:29:54;10.60;;;6.80;;
48596;SDS011;34382;43.160;24.148;2022-08-18T01:33:04;11.35;;;7.75;;
48596;SDS011;34382;43.160;24.148;2022-08-18T01:34:41;12.02;;;7.07;;
48596;SDS011;34382;43.160;24.148;2022-08-18T01:36:18;13.53;;;7.83;;
48596;SDS011;34382;43.160;24.148;2022-08-18T01:37:52;10.68;;;7.35;;
48596;SDS011;34382;43.160;24.148;2022-08-18T01:41:17;10.77;;;7.30;;
48596;SDS011;34382;43.160;24.148;2022-08-18T01:42:59;9.88;;;6.85;;
48596;SDS011;34382;43.160;24.148;2022-08-18T01:44:35;12.95;;;7.32;;
48596;SDS011;34382;43.160;24.148;2022-08-18T01:46:07;12.25;;;8.13;;
48596;SDS011;34382;43.160;24.148;2022-08-18T01:47:39;10.38;;;7.13;;
48596;SDS011;34382;43.160;24.148;2022-08-18T01:49:28;10.98;;;6.85;;
48596;SDS011;34382;43.160;24.148;2022-08-18T01:51:01;11.65;;;7.35;;
48596;SDS011;34382;43.160;24.148;2022-08-18T01:52:35;10.98;;;7.28;;
48596;SDS011;34382;43.160;24.148;2022-08-18T01:54:11;12.20;;;7.07;;
48596;SDS011;34382;43.160;24.148;2022-08-18T01:55:44;10.30;;;7.15;;
48596;SDS011;34382;43.160;24.148;2022-08-18T01:57:16;10.80;;;7.13;;
48596;SDS011;34382;43.160;24.148;2022-08-18T02:00:25;11.27;;;6.93;;
48596;SDS011;34382;43.160;24.148;2022-08-18T02:01:58;11.52;;;7.38;;
48596;SDS011;34382;43.160;24.148;2022-08-18T02:03:34;12.57;;;7.43;;
48596;SDS011;34382;43.160;24.148;2022-08-18T02:05:12;13.95;;;7.20;;
48596;SDS011;34382;43.160;24.148;2022-08-18T02:06:46;11.35;;;7.70;;
48596;SDS011;34382;43.160;24.148;2022-08-18T02:08:18;11.90;;;7.80;;
48596;SDS011;34382;43.160;24.148;2022-08-18T02:09:51;15.55;;;7.22;;
48596;SDS011;34382;43.160;24.148;2022-08-18T02:11:23;12.38;;;7.68;;
48596;SDS011;34382;43.160;24.148;2022-08-18T02:12:55;11.40;;;7.18;;
48596;SDS011;34382;43.160;24.148;2022-08-18T02:14:27;12.27;;;7.10;;
48596;SDS011;34382;43.160;24.148;2022-08-18T02:16:02;10.32;;;7.28;;
48596;SDS011;34382;43.160;24.148;2022-08-18T02:19:10;11.82;;;7.55;;
48596;SDS011;34382;43.160;24.148;2022-08-18T02:20:43;12.23;;;7.22;;
48596;SDS011;34382;43.160;24.148;2022-08-18T02:22:16;10.88;;;6.65;;
48596;SDS011;34382;43.160;24.148;2022-08-18T02:23:49;11.07;;;7.18;;
48596;SDS011;34382;43.160;24.148;2022-08-18T02:25:24;10.90;;;7.35;;
48596;SDS011;34382;43.160;24.148;2022-08-18T02:26:56;13.35;;;7.25;;
48596;SDS011;34382;43.160;24.148;2022-08-18T02:28:28;11.88;;;7.22;;
48596;SDS011;34382;43.160;24.148;2022-08-18T02:30:01;12.27;;;6.93;;
48596;SDS011;34382;43.160;24.148;2022-08-18T02:31:36;11.60;;;7.10;;
48596;SDS011;34382;43.160;24.148;2022-08-18T02:33:08;11.50;;;7.55;;
48596;SDS011;34382;43.160;24.148;2022-08-18T02:34:41;13.25;;;7.35;;
48596;SDS011;34382;43.160;24.148;2022-08-18T02:36:13;10.98;;;7.70;;
48596;SDS011;34382;43.160;24.148;2022-08-18T02:37:45;11.23;;;7.30;;
48596;SDS011;34382;43.160;24.148;2022-08-18T02:39:18;11.27;;;7.30;;
48596;SDS011;34382;43.160;24.148;2022-08-18T02:40:55;10.88;;;7.45;;
48596;SDS011;34382;43.160;24.148;2022-08-18T02:42:28;11.82;;;7.20;;
48596;SDS011;34382;43.160;24.148;2022-08-18T02:44:01;12.95;;;7.60;;
48596;SDS011;34382;43.160;24.148;2022-08-18T02:45:35;11.13;;;7.03;;
48596;SDS011;34382;43.160;24.148;2022-08-18T02:47:08;13.07;;;7.38;;
48596;SDS011;34382;43.160;24.148;2022-08-18T02:48:40;12.48;;;7.35;;
48596;SDS011;34382;43.160;24.148;2022-08-18T02:50:12;10.35;;;7.18;;
48596;SDS011;34382;43.160;24.148;2022-08-18T02:51:44;10.98;;;7.35;;
48596;SDS011;34382;43.160;24.148;2022-08-18T02:53:16;11.10;;;7.18;;
48596;SDS011;34382;43.160;24.148;2022-08-18T02:54:58;10.65;;;6.85;;
48596;SDS011;34382;43.160;24.148;2022-08-18T02:56:33;10.45;;;7.30;;
48596;SDS011;34382;43.160;24.148;2022-08-18T02:58:12;11.15;;;7.53;;
48596;SDS011;34382;43.160;24.148;2022-08-18T02:59:44;12.27;;;7.47;;
48596;SDS011;34382;43.160;24.148;2022-08-18T03:01:19;14.68;;;7.20;;
48596;SDS011;34382;43.160;24.148;2022-08-18T03:02:52;10.93;;;6.95;;
48596;SDS011;34382;43.160;24.148;2022-08-18T03:04:26;11.68;;;7.50;;
48596;SDS011;34382;43.160;24.148;2022-08-18T03:06:00;11.88;;;7.65;;
48596;SDS011;34382;43.160;24.148;2022-08-18T03:07:32;12.45;;;7.93;;
48596;SDS011;34382;43.160;24.148;2022-08-18T03:09:06;12.85;;;6.75;;
48596;SDS011;34382;43.160;24.148;2022-08-18T03:10:39;14.18;;;7.57;;
48596;SDS011;34382;43.160;24.148;2022-08-18T03:12:12;10.43;;;7.18;;
48596;SDS011;34382;43.160;24.148;2022-08-18T03:13:46;11.43;;;7.53;;
48596;SDS011;34382;43.160;24.148;2022-08-18T03:15:18;10.88;;;7.38;;
48596;SDS011;34382;43.160;24.148;2022-08-18T03:16:50;13.20;;;7.28;;
48596;SDS011;34382;43.160;24.148;2022-08-18T03:18:25;12.30;;;7.15;;
48596;SDS011;34382;43.160;24.148;2022-08-18T03:19:57;9.70;;;6.53;;
48596;SDS011;34382;43.160;24.148;2022-08-18T03:21:32;13.13;;;7.53;;
48596;SDS011;34382;43.160;24.148;2022-08-18T03:23:08;11.57;;;7.35;;
48596;SDS011;34382;43.160;24.148;2022-08-18T03:24:40;10.17;;;6.97;;
48596;SDS011;34382;43.160;24.148;2022-08-18T03:26:13;10.45;;;7.20;;
48596;SDS011;34382;43.160;24.148;2022-08-18T03:27:46;11.02;;;7.13;;
48596;SDS011;34382;43.160;24.148;2022-08-18T03:29:19;10.13;;;6.95;;
48596;SDS011;34382;43.160;24.148;2022-08-18T03:32:23;11.93;;;7.20;;
48596;SDS011;34382;43.160;24.148;2022-08-18T03:33:56;12.68;;;7.15;;
48596;SDS011;34382;43.160;24.148;2022-08-18T03:35:30;12.35;;;7.50;;
48596;SDS011;34382;43.160;24.148;2022-08-18T03:37:02;11.82;;;7.40;;
48596;SDS011;34382;43.160;24.148;2022-08-18T03:38:34;12.32;;;7.93;;
48596;SDS011;34382;43.160;24.148;2022-08-18T03:40:06;11.70;;;7.25;;
48596;SDS011;34382;43.160;24.148;2022-08-18T03:41:42;10.38;;;7.15;;
48596;SDS011;34382;43.160;24.148;2022-08-18T03:43:31;12.32;;;7.57;;
48596;SDS011;34382;43.160;24.148;2022-08-18T03:45:21;11.60;;;7.53;;
48596;SDS011;34382;43.160;24.148;2022-08-18T03:46:54;12.02;;;7.72;;
48596;SDS011;34382;43.160;24.148;2022-08-18T03:48:28;9.52;;;6.80;;
48596;SDS011;34382;43.160;24.148;2022-08-18T03:50:00;12.30;;;7.28;;
48596;SDS011;34382;43.160;24.148;2022-08-18T03:51:32;12.07;;;7.28;;
48596;SDS011;34382;43.160;24.148;2022-08-18T03:53:04;12.38;;;7.68;;
48596;SDS011;34382;43.160;24.148;2022-08-18T03:54:37;11.90;;;7.35;;
48596;SDS011;34382;43.160;24.148;2022-08-18T03:56:11;10.48;;;7.07;;
48596;SDS011;34382;43.160;24.148;2022-08-18T03:57:48;10.77;;;7.45;;
48596;SDS011;34382;43.160;24.148;2022-08-18T03:59:24;13.70;;;7.55;;
48596;SDS011;34382;43.160;24.148;2022-08-18T04:00:57;11.77;;;7.43;;
48596;SDS011;34382;43.160;24.148;2022-08-18T04:02:30;10.30;;;7.03;;
48596;SDS011;34382;43.160;24.148;2022-08-18T04:04:03;10.82;;;7.05;;
48596;SDS011;34382;43.160;24.148;2022-08-18T04:05:39;12.13;;;7.28;;
48596;SDS011;34382;43.160;24.148;2022-08-18T04:07:11;12.00;;;7.68;;
48596;SDS011;34382;43.160;24.148;2022-08-18T04:08:52;14.50;;;7.80;;
48596;SDS011;34382;43.160;24.148;2022-08-18T04:10:25;13.50;;;7.30;;
48596;SDS011;34382;43.160;24.148;2022-08-18T04:12:00;10.95;;;7.25;;
48596;SDS011;34382;43.160;24.148;2022-08-18T04:13:37;11.93;;;8.18;;
48596;SDS011;34382;43.160;24.148;2022-08-18T04:15:10;10.50;;;7.03;;
48596;SDS011;34382;43.160;24.148;2022-08-18T04:16:42;12.65;;;7.70;;
48596;SDS011;34382;43.160;24.148;2022-08-18T04:18:15;10.02;;;6.93;;
48596;SDS011;34382;43.160;24.148;2022-08-18T04:19:48;10.38;;;7.30;;
48596;SDS011;34382;43.160;24.148;2022-08-18T04:21:20;11.35;;;6.90;;
48596;SDS011;34382;43.160;24.148;2022-08-18T04:22:54;10.98;;;6.90;;
48596;SDS011;34382;43.160;24.148;2022-08-18T04:24:27;11.82;;;7.38;;
48596;SDS011;34382;43.160;24.148;2022-08-18T04:26:03;14.13;;;8.27;;
48596;SDS011;34382;43.160;24.148;2022-08-18T04:27:37;10.90;;;7.47;;
48596;SDS011;34382;43.160;24.148;2022-08-18T04:29:14;14.45;;;7.68;;
48596;SDS011;34382;43.160;24.148;2022-08-18T04:30:47;11.75;;;7.40;;
48596;SDS011;34382;43.160;24.148;2022-08-18T04:32:19;13.10;;;7.50;;
48596;SDS011;34382;43.160;24.148;2022-08-18T04:34:00;13.73;;;7.22;;
48596;SDS011;34382;43.160;24.148;2022-08-18T04:35:34;11.05;;;7.07;;
48596;SDS011;34382;43.160;24.148;2022-08-18T04:37:06;10.68;;;7.25;;
48596;SDS011;34382;43.160;24.148;2022-08-18T04:38:40;11.88;;;7.40;;
48596;SDS011;34382;43.160;24.148;2022-08-18T04:40:13;11.88;;;7.68;;
48596;SDS011;34382;43.160;24.148;2022-08-18T04:41:45;12.25;;;7.80;;
48596;SDS011;34382;43.160;24.148;2022-08-18T04:43:19;11.57;;;7.97;;
48596;SDS011;34382;43.160;24.148;2022-08-18T04:44:51;12.15;;;7.90;;
48596;SDS011;34382;43.160;24.148;2022-08-18T04:46:24;11.50;;;7.55;;
48596;SDS011;34382;43.160;24.148;2022-08-18T04:47:56;13.07;;;7.53;;
48596;SDS011;34382;43.160;24.148;2022-08-18T04:49:28;11.45;;;7.50;;
48596;SDS011;34382;43.160;24.148;2022-08-18T04:51:10;12.13;;;7.38;;
48596;SDS011;34382;43.160;24.148;2022-08-18T04:53:03;11.43;;;7.70;;
48596;SDS011;34382;43.160;24.148;2022-08-18T04:54:54;11.50;;;7.85;;
48596;SDS011;34382;43.160;24.148;2022-08-18T04:56:27;10.65;;;7.25;;
48596;SDS011;34382;43.160;24.148;2022-08-18T04:58:05;11.57;;;7.57;;
48596;SDS011;34382;43.160;24.148;2022-08-18T04:59:39;11.98;;;7.95;;
48596;SDS011;34382;43.160;24.148;2022-08-18T05:01:12;12.25;;;7.45;;
48596;SDS011;34382;43.160;24.148;2022-08-18T05:02:44;15.75;;;7.28;;
48596;SDS011;34382;43.160;24.148;2022-08-18T05:04:16;12.25;;;7.30;;
48596;SDS011;34382;43.160;24.148;2022-08-18T05:05:48;11.02;;;7.25;;
48596;SDS011;34382;43.160;24.148;2022-08-18T05:07:20;10.75;;;7.28;;
48596;SDS011;34382;43.160;24.148;2022-08-18T05:08:58;12.75;;;7.63;;
48596;SDS011;34382;43.160;24.148;2022-08-18T05:10:36;19.23;;;14.18;;
48596;SDS011;34382;43.160;24.148;2022-08-18T05:12:09;18.20;;;10.53;;
48596;SDS011;34382;43.160;24.148;2022-08-18T05:13:44;12.88;;;8.40;;
48596;SDS011;34382;43.160;24.148;2022-08-18T05:15:16;13.27;;;9.65;;
48596;SDS011;34382;43.160;24.148;2022-08-18T05:16:49;14.13;;;10.00;;
48596;SDS011;34382;43.160;24.148;2022-08-18T05:18:23;13.35;;;7.78;;
48596;SDS011;34382;43.160;24.148;2022-08-18T05:19:59;12.80;;;7.78;;
48596;SDS011;34382;43.160;24.148;2022-08-18T05:21:32;25.15;;;19.73;;
48596;SDS011;34382;43.160;24.148;2022-08-18T05:23:09;23.30;;;9.65;;
48596;SDS011;34382;43.160;24.148;2022-08-18T05:24:41;13.50;;;6.75;;
48596;SDS011;34382;43.160;24.148;2022-08-18T05:26:15;19.75;;;14.68;;
48596;SDS011;34382;43.160;24.148;2022-08-18T05:27:48;19.95;;;17.30;;
48596;SDS011;34382;43.160;24.148;2022-08-18T05:29:21;15.83;;;11.00;;
48596;SDS011;34382;43.160;24.148;2022-08-18T05:30:54;15.43;;;11.45;;
48596;SDS011;34382;43.160;24.148;2022-08-18T05:32:34;12.07;;;8.25;;
48596;SDS011;34382;43.160;24.148;2022-08-18T05:34:19;12.45;;;7.10;;
48596;SDS011;34382;43.160;24.148;2022-08-18T05:37:41;11.35;;;7.95;;
48596;SDS011;34382;43.160;24.148;2022-08-18T05:39:25;13.45;;;7.20;;
48596;SDS011;34382;43.160;24.148;2022-08-18T05:42:44;10.63;;;6.50;;
48596;SDS011;34382;43.160;24.148;2022-08-18T05:44:18;14.13;;;6.82;;
48596;SDS011;34382;43.160;24.148;2022-08-18T05:45:53;11.77;;;6.97;;
48596;SDS011;34382;43.160;24.148;2022-08-18T05:47:30;12.05;;;7.28;;
48596;SDS011;34382;43.160;24.148;2022-08-18T05:49:03;13.00;;;7.25;;
48596;SDS011;34382;43.160;24.148;2022-08-18T05:50:35;11.07;;;7.47;;
48596;SDS011;34382;43.160;24.148;2022-08-18T05:53:56;10.98;;;6.75;;
48596;SDS011;34382;43.160;24.148;2022-08-18T05:55:50;10.65;;;7.13;;
48596;SDS011;34382;43.160;24.148;2022-08-18T05:57:51;11.63;;;7.93;;
48596;SDS011;34382;43.160;24.148;2022-08-18T05:59:33;10.10;;;7.07;;
48596;SDS011;34382;43.160;24.148;2022-08-18T06:01:14;11.00;;;7.32;;
48596;SDS011;34382;43.160;24.148;2022-08-18T06:02:59;12.05;;;8.73;;
48596;SDS011;34382;43.160;24.148;2022-08-18T06:04:50;12.10;;;7.25;;
48596;SDS011;34382;43.160;24.148;2022-08-18T06:06:25;12.23;;;7.45;;
48596;SDS011;34382;43.160;24.148;2022-08-18T06:09:49;9.60;;;6.05;;
48596;SDS011;34382;43.160;24.148;2022-08-18T06:11:25;11.40;;;6.50;;
48596;SDS011;34382;43.160;24.148;2022-08-18T06:12:57;9.27;;;5.83;;
48596;SDS011;34382;43.160;24.148;2022-08-18T06:14:31;10.52;;;6.40;;
48596;SDS011;34382;43.160;24.148;2022-08-18T06:18:04;11.13;;;7.78;;
48596;SDS011;34382;43.160;24.148;2022-08-18T06:24:58;12.80;;;7.07;;
48596;SDS011;34382;43.160;24.148;2022-08-18T06:26:55;10.70;;;7.20;;
48596;SDS011;34382;43.160;24.148;2022-08-18T06:28:46;12.02;;;6.72;;
48596;SDS011;34382;43.160;24.148;2022-08-18T06:30:26;9.45;;;6.10;;
48596;SDS011;34382;43.160;24.148;2022-08-18T06:34:15;11.60;;;6.75;;
48596;SDS011;34382;43.160;24.148;2022-08-18T06:37:33;10.52;;;6.43;;
48596;SDS011;34382;43.160;24.148;2022-08-18T06:39:41;9.55;;;5.63;;
48596;SDS011;34382;43.160;24.148;2022-08-18T06:41:36;10.25;;;6.38;;
48596;SDS011;34382;43.160;24.148;2022-08-18T06:43:14;9.60;;;5.85;;
48596;SDS011;34382;43.160;24.148;2022-08-18T06:44:48;11.10;;;6.18;;
48596;SDS011;34382;43.160;24.148;2022-08-18T06:46:25;11.77;;;5.75;;
48596;SDS011;34382;43.160;24.148;2022-08-18T06:50:07;13.50;;;5.97;;
48596;SDS011;34382;43.160;24.148;2022-08-18T06:51:45;9.00;;;5.57;;
48596;SDS011;34382;43.160;24.148;2022-08-18T06:53:17;9.20;;;5.20;;
48596;SDS011;34382;43.160;24.148;2022-08-18T06:54:59;9.68;;;5.90;;
48596;SDS011;34382;43.160;24.148;2022-08-18T06:59:55;9.60;;;5.53;;
48596;SDS011;34382;43.160;24.148;2022-08-18T07:01:32;9.60;;;5.65;;
48596;SDS011;34382;43.160;24.148;2022-08-18T07:06:38;10.82;;;8.45;;
48596;SDS011;34382;43.160;24.148;2022-08-18T07:09:46;13.40;;;9.25;;
48596;SDS011;34382;43.160;24.148;2022-08-18T07:11:20;10.73;;;7.30;;
48596;SDS011;34382;43.160;24.148;2022-08-18T07:13:29;10.10;;;5.80;;
48596;SDS011;34382;43.160;24.148;2022-08-18T07:14:59;12.10;;;6.90;;
48596;SDS011;34382;43.160;24.148;2022-08-18T07:16:33;10.15;;;5.70;;
48596;SDS011;34382;43.160;24.148;2022-08-18T07:18:26;12.07;;;5.22;;
48596;SDS011;34382;43.160;24.148;2022-08-18T07:20:22;8.52;;;5.00;;
48596;SDS011;34382;43.160;24.148;2022-08-18T07:25:10;16.52;;;11.45;;
48596;SDS011;34382;43.160;24.148;2022-08-18T07:27:05;9.55;;;5.05;;
48596;SDS011;34382;43.160;24.148;2022-08-18T07:31:50;9.70;;;4.88;;
48596;SDS011;34382;43.160;24.148;2022-08-18T07:33:23;9.32;;;5.70;;
48596;SDS011;34382;43.160;24.148;2022-08-18T07:34:57;8.80;;;4.47;;
48596;SDS011;34382;43.160;24.148;2022-08-18T07:38:36;8.90;;;4.50;;
48596;SDS011;34382;43.160;24.148;2022-08-18T07:40:19;10.50;;;7.50;;
48596;SDS011;34382;43.160;24.148;2022-08-18T07:42:05;8.43;;;4.40;;
48596;SDS011;34382;43.160;24.148;2022-08-18T07:43:52;8.10;;;4.40;;
48596;SDS011;34382;43.160;24.148;2022-08-18T07:45:47;7.97;;;4.40;;
48596;SDS011;34382;43.160;24.148;2022-08-18T07:47:25;7.63;;;3.97;;
48596;SDS011;34382;43.160;24.148;2022-08-18T07:49:07;10.57;;;4.82;;
48596;SDS011;34382;43.160;24.148;2022-08-18T07:51:04;8.00;;;4.20;;
48596;SDS011;34382;43.160;24.148;2022-08-18T07:52:44;11.30;;;5.78;;
48596;SDS011;34382;43.160;24.148;2022-08-18T07:54:26;11.25;;;4.05;;
48596;SDS011;34382;43.160;24.148;2022-08-18T07:58:36;10.38;;;5.28;;
48596;SDS011;34382;43.160;24.148;2022-08-18T08:00:33;8.20;;;4.65;;
48596;SDS011;34382;43.160;24.148;2022-08-18T08:02:32;9.60;;;4.50;;
48596;SDS011;34382;43.160;24.148;2022-08-18T08:05:11;8.30;;;4.22;;
48596;SDS011;34382;43.160;24.148;2022-08-18T08:06:44;19.05;;;6.32;;
48596;SDS011;34382;43.160;24.148;2022-08-18T08:11:02;8.23;;;4.60;;
48596;SDS011;34382;43.160;24.148;2022-08-18T08:20:56;7.88;;;3.90;;
48596;SDS011;34382;43.160;24.148;2022-08-18T08:24:15;9.02;;;4.10;;
48596;SDS011;34382;43.160;24.148;2022-08-18T08:35:04;8.77;;;4.00;;
48596;SDS011;34382;43.160;24.148;2022-08-18T08:37:00;7.88;;;4.20;;
48596;SDS011;34382;43.160;24.148;2022-08-18T08:38:43;11.15;;;5.30;;
48596;SDS011;34382;43.160;24.148;2022-08-18T08:40:19;12.70;;;5.60;;
48596;SDS011;34382;43.160;24.148;2022-08-18T08:42:04;8.73;;;4.32;;
48596;SDS011;34382;43.160;24.148;2022-08-18T08:44:02;8.73;;;4.18;;
48596;SDS011;34382;43.160;24.148;2022-08-18T08:45:44;7.40;;;3.90;;
48596;SDS011;34382;43.160;24.148;2022-08-18T08:47:24;11.50;;;4.90;;
48596;SDS011;34382;43.160;24.148;2022-08-18T08:49:08;7.50;;;3.78;;
48596;SDS011;34382;43.160;24.148;2022-08-18T08:50:57;9.93;;;4.05;;
48596;SDS011;34382;43.160;24.148;2022-08-18T08:54:22;8.15;;;3.88;;
48596;SDS011;34382;43.160;24.148;2022-08-18T08:56:02;9.57;;;4.70;;
48596;SDS011;34382;43.160;24.148;2022-08-18T08:58:02;7.53;;;4.07;;
48596;SDS011;34382;43.160;24.148;2022-08-18T08:59:38;9.82;;;4.22;;
48596;SDS011;34382;43.160;24.148;2022-08-18T09:02:59;8.82;;;4.25;;
48596;SDS011;34382;43.160;24.148;2022-08-18T09:05:11;8.60;;;4.10;;
48596;SDS011;34382;43.160;24.148;2022-08-18T09:07:01;8.18;;;4.22;;
48596;SDS011;34382;43.160;24.148;2022-08-18T09:10:45;8.85;;;3.92;;
48596;SDS011;34382;43.160;24.148;2022-08-18T09:12:24;8.13;;;4.38;;
48596;SDS011;34382;43.160;24.148;2022-08-18T09:17:53;9.32;;;4.25;;
48596;SDS011;34382;43.160;24.148;2022-08-18T09:42:24;7.45;;;4.20;;
48596;SDS011;34382;43.160;24.148;2022-08-18T09:44:06;7.03;;;3.60;;
48596;SDS011;34382;43.160;24.148;2022-08-18T09:45:59;9.65;;;4.18;;
48596;SDS011;34382;43.160;24.148;2022-08-18T09:51:20;8.60;;;4.20;;
48596;SDS011;34382;43.160;24.148;2022-08-18T09:58:53;8.10;;;3.78;;
48596;SDS011;34382;43.160;24.148;2022-08-18T10:00:27;10.05;;;4.63;;
48596;SDS011;34382;43.160;24.148;2022-08-18T10:02:05;8.07;;;3.80;;
48596;SDS011;34382;43.160;24.148;2022-08-18T10:05:56;8.55;;;3.50;;
48596;SDS011;34382;43.160;24.148;2022-08-18T10:07:35;11.48;;;4.05;;
48596;SDS011;34382;43.160;24.148;2022-08-18T10:09:16;10.57;;;4.10;;
48596;SDS011;34382;43.160;24.148;2022-08-18T10:17:22;8.77;;;4.13;;
48596;SDS011;34382;43.160;24.148;2022-08-18T10:19:14;7.53;;;4.05;;
48596;SDS011;34382;43.160;24.148;2022-08-18T10:20:53;7.70;;;3.85;;
48596;SDS011;34382;43.160;24.148;2022-08-18T10:22:34;8.13;;;4.00;;
48596;SDS011;34382;43.160;24.148;2022-08-18T10:24:15;8.00;;;4.13;;
48596;SDS011;34382;43.160;24.148;2022-08-18T10:28:01;9.02;;;4.68;;
48596;SDS011;34382;43.160;24.148;2022-08-18T10:29:44;9.15;;;4.00;;
48596;SDS011;34382;43.160;24.148;2022-08-18T10:31:20;7.95;;;3.90;;
48596;SDS011;34382;43.160;24.148;2022-08-18T10:32:58;7.15;;;3.58;;
48596;SDS011;34382;43.160;24.148;2022-08-18T10:34:48;7.38;;;3.47;;
48596;SDS011;34382;43.160;24.148;2022-08-18T10:38:40;7.88;;;3.92;;
48596;SDS011;34382;43.160;24.148;2022-08-18T10:40:20;8.40;;;4.00;;
48596;SDS011;34382;43.160;24.148;2022-08-18T10:42:01;7.28;;;3.80;;
48596;SDS011;34382;43.160;24.148;2022-08-18T10:43:47;8.00;;;3.67;;
48596;SDS011;34382;43.160;24.148;2022-08-18T10:45:30;6.78;;;3.58;;
48596;SDS011;34382;43.160;24.148;2022-08-18T10:47:43;7.35;;;4.13;;
48596;SDS011;34382;43.160;24.148;2022-08-18T10:49:21;7.40;;;3.97;;
48596;SDS011;34382;43.160;24.148;2022-08-18T10:54:56;7.03;;;3.83;;
48596;SDS011;34382;43.160;24.148;2022-08-18T10:58:31;8.55;;;4.20;;
48596;SDS011;34382;43.160;24.148;2022-08-18T11:00:24;7.57;;;4.25;;
48596;SDS011;34382;43.160;24.148;2022-08-18T11:02:13;7.95;;;3.85;;
48596;SDS011;34382;43.160;24.148;2022-08-18T11:05:44;8.52;;;4.03;;
48596;SDS011;34382;43.160;24.148;2022-08-18T11:09:04;7.90;;;4.20;;
48596;SDS011;34382;43.160;24.148;2022-08-18T11:10:39;8.88;;;4.60;;
48596;SDS011;34382;43.160;24.148;2022-08-18T11:14:56;7.65;;;4.10;;
48596;SDS011;34382;43.160;24.148;2022-08-18T11:16:58;7.60;;;4.35;;
48596;SDS011;34382;43.160;24.148;2022-08-18T11:20:15;8.15;;;3.95;;
48596;SDS011;34382;43.160;24.148;2022-08-18T11:21:49;9.85;;;4.65;;
48596;SDS011;34382;43.160;24.148;2022-08-18T11:23:22;10.90;;;3.88;;
48596;SDS011;34382;43.160;24.148;2022-08-18T11:24:54;7.45;;;4.15;;
48596;SDS011;34382;43.160;24.148;2022-08-18T11:26:30;8.35;;;4.40;;
48596;SDS011;34382;43.160;24.148;2022-08-18T11:28:18;9.82;;;4.20;;
48596;SDS011;34382;43.160;24.148;2022-08-18T11:30:01;11.05;;;4.53;;
48596;SDS011;34382;43.160;24.148;2022-08-18T11:31:36;7.53;;;3.88;;
48596;SDS011;34382;43.160;24.148;2022-08-18T11:33:12;6.90;;;4.00;;
48596;SDS011;34382;43.160;24.148;2022-08-18T11:35:10;8.52;;;4.47;;
48596;SDS011;34382;43.160;24.148;2022-08-18T11:36:56;9.57;;;4.00;;
48596;SDS011;34382;43.160;24.148;2022-08-18T11:38:32;8.82;;;4.10;;
48596;SDS011;34382;43.160;24.148;2022-08-18T11:42:34;8.07;;;4.28;;
48596;SDS011;34382;43.160;24.148;2022-08-18T11:44:12;9.60;;;4.43;;
48596;SDS011;34382;43.160;24.148;2022-08-18T11:45:52;7.80;;;4.15;;
48596;SDS011;34382;43.160;24.148;2022-08-18T11:47:28;9.48;;;3.83;;
48596;SDS011;34382;43.160;24.148;2022-08-18T11:49:00;8.15;;;3.90;;
48596;SDS011;34382;43.160;24.148;2022-08-18T11:52:54;7.97;;;4.85;;
48596;SDS011;34382;43.160;24.148;2022-08-18T11:54:47;7.72;;;3.95;;
48596;SDS011;34382;43.160;24.148;2022-08-18T11:58:06;9.00;;;3.90;;
48596;SDS011;34382;43.160;24.148;2022-08-18T11:59:43;9.35;;;4.07;;
48596;SDS011;34382;43.160;24.148;2022-08-18T12:05:09;8.18;;;4.15;;
48596;SDS011;34382;43.160;24.148;2022-08-18T12:08:50;10.80;;;4.25;;
48596;SDS011;34382;43.160;24.148;2022-08-18T12:10:29;7.00;;;3.50;;
48596;SDS011;34382;43.160;24.148;2022-08-18T12:13:44;8.45;;;3.83;;
48596;SDS011;34382;43.160;24.148;2022-08-18T12:15:26;7.82;;;4.03;;